sensor_id;sensor_type;location;lat;lon;timestamp;P1;durP1;ratioP1;P2;durP2;ratioP2
48040;SDS011;33815;48.386;11.738;2023-10-09T00:01:24;15.32;;;6.00;;
48040;SDS011;33815;48.386;11.738;2023-10-09T00:03:51;13.57;;;5.47;;
48040;SDS011;33815;48.386;11.738;2023-10-09T00:06:18;9.10;;;5.00;;
48040;SDS011;33815;48.386;11.738;2023-10-09T00:08:56;10.27;;;5.45;;
48040;SDS011;33815;48.386;11.738;2023-10-09T00:11:21;10.50;;;5.65;;
48040;SDS011;33815;48.386;11.738;2023-10-09T00:13:51;12.43;;;6.18;;
48040;SDS011;33815;48.386;11.738;2023-10-09T00:16:23;11.63;;;5.57;;
48040;SDS011;33815;48.386;11.738;2023-10-09T00:19:05;9.85;;;6.22;;
48040;SDS011;33815;48.386;11.738;2023-10-09T00:21:48;14.65;;;5.93;;
48040;SDS011;33815;48.386;11.738;2023-10-09T00:24:14;9.98;;;5.30;;
48040;SDS011;33815;48.386;11.738;2023-10-09T00:26:48;8.95;;;5.20;;
48040;SDS011;33815;48.386;11.738;2023-10-09T00:29:14;11.18;;;5.60;;
48040;SDS011;33815;48.386;11.738;2023-10-09T00:31:41;15.43;;;5.68;;
48040;SDS011;33815;48.386;11.738;2023-10-09T00:34:15;10.95;;;5.57;;
48040;SDS011;33815;48.386;11.738;2023-10-09T00:36:44;8.57;;;5.78;;
48040;SDS011;33815;48.386;11.738;2023-10-09T00:39:19;13.65;;;5.65;;
48040;SDS011;33815;48.386;11.738;2023-10-09T00:41:59;13.55;;;6.25;;
48040;SDS011;33815;48.386;11.738;2023-10-09T00:44:26;14.48;;;5.78;;
48040;SDS011;33815;48.386;11.738;2023-10-09T00:47:02;9.73;;;5.50;;
48040;SDS011;33815;48.386;11.738;2023-10-09T00:49:35;7.15;;;5.35;;
48040;SDS011;33815;48.386;11.738;2023-10-09T00:52:06;11.40;;;5.75;;
48040;SDS011;33815;48.386;11.738;2023-10-09T00:54:42;14.70;;;5.20;;
48040;SDS011;33815;48.386;11.738;2023-10-09T00:57:09;13.02;;;5.70;;
48040;SDS011;33815;48.386;11.738;2023-10-09T00:59:38;11.98;;;6.15;;
48040;SDS011;33815;48.386;11.738;2023-10-09T01:02:05;16.55;;;5.72;;
48040;SDS011;33815;48.386;11.738;2023-10-09T01:04:30;12.70;;;5.65;;
48040;SDS011;33815;48.386;11.738;2023-10-09T01:07:01;10.50;;;5.55;;
48040;SDS011;33815;48.386;11.738;2023-10-09T01:09:35;11.60;;;6.13;;
48040;SDS011;33815;48.386;11.738;2023-10-09T01:12:03;13.52;;;6.20;;
48040;SDS011;33815;48.386;11.738;2023-10-09T01:14:29;11.93;;;5.68;;
48040;SDS011;33815;48.386;11.738;2023-10-09T01:16:56;13.90;;;4.72;;
48040;SDS011;33815;48.386;11.738;2023-10-09T01:19:22;14.85;;;5.07;;
48040;SDS011;33815;48.386;11.738;2023-10-09T01:21:52;10.60;;;5.10;;
48040;SDS011;33815;48.386;11.738;2023-10-09T01:24:27;7.18;;;4.90;;
48040;SDS011;33815;48.386;11.738;2023-10-09T01:26:53;9.68;;;5.57;;
48040;SDS011;33815;48.386;11.738;2023-10-09T01:29:22;12.45;;;5.13;;
48040;SDS011;33815;48.386;11.738;2023-10-09T01:31:55;12.77;;;5.05;;
48040;SDS011;33815;48.386;11.738;2023-10-09T01:34:25;13.10;;;4.93;;
48040;SDS011;33815;48.386;11.738;2023-10-09T01:39:47;11.07;;;4.88;;
48040;SDS011;33815;48.386;11.738;2023-10-09T01:42:14;11.38;;;5.10;;
48040;SDS011;33815;48.386;11.738;2023-10-09T01:44:49;13.32;;;5.85;;
48040;SDS011;33815;48.386;11.738;2023-10-09T01:47:15;10.45;;;5.82;;
48040;SDS011;33815;48.386;11.738;2023-10-09T01:49:43;8.25;;;4.60;;
48040;SDS011;33815;48.386;11.738;2023-10-09T01:52:09;9.73;;;4.45;;
48040;SDS011;33815;48.386;11.738;2023-10-09T01:54:41;7.78;;;4.60;;
48040;SDS011;33815;48.386;11.738;2023-10-09T01:57:14;6.82;;;4.18;;
48040;SDS011;33815;48.386;11.738;2023-10-09T01:59:41;7.60;;;4.20;;
48040;SDS011;33815;48.386;11.738;2023-10-09T02:02:14;9.80;;;4.68;;
48040;SDS011;33815;48.386;11.738;2023-10-09T02:04:52;7.53;;;4.65;;
48040;SDS011;33815;48.386;11.738;2023-10-09T02:07:19;6.13;;;3.88;;
48040;SDS011;33815;48.386;11.738;2023-10-09T02:09:52;9.10;;;5.05;;
48040;SDS011;33815;48.386;11.738;2023-10-09T02:12:19;7.90;;;4.35;;
48040;SDS011;33815;48.386;11.738;2023-10-09T02:14:46;8.65;;;4.82;;
48040;SDS011;33815;48.386;11.738;2023-10-09T02:17:12;13.13;;;4.90;;
48040;SDS011;33815;48.386;11.738;2023-10-09T02:19:43;11.98;;;4.63;;
48040;SDS011;33815;48.386;11.738;2023-10-09T02:22:13;15.38;;;5.15;;
48040;SDS011;33815;48.386;11.738;2023-10-09T02:24:42;9.02;;;4.32;;
48040;SDS011;33815;48.386;11.738;2023-10-09T02:27:18;9.07;;;4.93;;
48040;SDS011;33815;48.386;11.738;2023-10-09T02:30:03;11.73;;;5.05;;
48040;SDS011;33815;48.386;11.738;2023-10-09T02:32:34;10.25;;;4.75;;
48040;SDS011;33815;48.386;11.738;2023-10-09T02:35:01;7.72;;;4.88;;
48040;SDS011;33815;48.386;11.738;2023-10-09T02:37:35;7.85;;;4.90;;
48040;SDS011;33815;48.386;11.738;2023-10-09T02:40:02;6.75;;;4.82;;
48040;SDS011;33815;48.386;11.738;2023-10-09T02:42:34;7.50;;;4.28;;
48040;SDS011;33815;48.386;11.738;2023-10-09T02:44:59;10.55;;;4.65;;
48040;SDS011;33815;48.386;11.738;2023-10-09T02:47:25;10.85;;;4.57;;
48040;SDS011;33815;48.386;11.738;2023-10-09T02:50:02;10.65;;;4.35;;
48040;SDS011;33815;48.386;11.738;2023-10-09T02:52:33;6.82;;;3.90;;
48040;SDS011;33815;48.386;11.738;2023-10-09T02:55:05;7.57;;;4.05;;
48040;SDS011;33815;48.386;11.738;2023-10-09T02:57:33;9.10;;;4.45;;
48040;SDS011;33815;48.386;11.738;2023-10-09T03:00:03;6.28;;;3.65;;
48040;SDS011;33815;48.386;11.738;2023-10-09T03:02:33;9.15;;;4.18;;
48040;SDS011;33815;48.386;11.738;2023-10-09T03:04:58;8.20;;;4.63;;
48040;SDS011;33815;48.386;11.738;2023-10-09T03:07:24;12.98;;;4.95;;
48040;SDS011;33815;48.386;11.738;2023-10-09T03:09:49;5.53;;;3.83;;
48040;SDS011;33815;48.386;11.738;2023-10-09T03:12:14;7.10;;;4.72;;
48040;SDS011;33815;48.386;11.738;2023-10-09T03:14:43;8.40;;;4.28;;
48040;SDS011;33815;48.386;11.738;2023-10-09T03:17:09;8.20;;;4.63;;
48040;SDS011;33815;48.386;11.738;2023-10-09T03:19:36;12.32;;;5.10;;
48040;SDS011;33815;48.386;11.738;2023-10-09T03:22:03;7.18;;;4.72;;
48040;SDS011;33815;48.386;11.738;2023-10-09T03:24:29;9.10;;;4.38;;
48040;SDS011;33815;48.386;11.738;2023-10-09T03:26:57;14.75;;;5.15;;
48040;SDS011;33815;48.386;11.738;2023-10-09T03:29:22;13.52;;;4.72;;
48040;SDS011;33815;48.386;11.738;2023-10-09T03:31:49;13.05;;;5.82;;
48040;SDS011;33815;48.386;11.738;2023-10-09T03:34:16;13.05;;;5.10;;
48040;SDS011;33815;48.386;11.738;2023-10-09T03:36:41;10.27;;;5.50;;
48040;SDS011;33815;48.386;11.738;2023-10-09T03:39:08;9.10;;;5.03;;
48040;SDS011;33815;48.386;11.738;2023-10-09T03:41:49;10.70;;;5.18;;
48040;SDS011;33815;48.386;11.738;2023-10-09T03:44:15;14.65;;;5.13;;
48040;SDS011;33815;48.386;11.738;2023-10-09T03:46:43;7.32;;;4.75;;
48040;SDS011;33815;48.386;11.738;2023-10-09T03:49:09;9.20;;;5.03;;
48040;SDS011;33815;48.386;11.738;2023-10-09T03:51:36;9.25;;;4.93;;
48040;SDS011;33815;48.386;11.738;2023-10-09T03:54:02;7.05;;;4.47;;
48040;SDS011;33815;48.386;11.738;2023-10-09T03:56:32;9.43;;;5.38;;
48040;SDS011;33815;48.386;11.738;2023-10-09T03:58:57;9.02;;;5.55;;
48040;SDS011;33815;48.386;11.738;2023-10-09T04:01:23;9.80;;;4.93;;
48040;SDS011;33815;48.386;11.738;2023-10-09T04:03:58;11.02;;;4.57;;
48040;SDS011;33815;48.386;11.738;2023-10-09T04:06:28;12.90;;;4.65;;
48040;SDS011;33815;48.386;11.738;2023-10-09T04:08:57;10.15;;;4.35;;
48040;SDS011;33815;48.386;11.738;2023-10-09T04:11:24;11.20;;;4.57;;
48040;SDS011;33815;48.386;11.738;2023-10-09T04:13:49;6.85;;;4.18;;
48040;SDS011;33815;48.386;11.738;2023-10-09T04:16:17;8.23;;;3.50;;
48040;SDS011;33815;48.386;11.738;2023-10-09T04:18:58;7.50;;;4.72;;
48040;SDS011;33815;48.386;11.738;2023-10-09T04:21:24;11.93;;;4.72;;
48040;SDS011;33815;48.386;11.738;2023-10-09T04:24:04;8.88;;;4.57;;
48040;SDS011;33815;48.386;11.738;2023-10-09T04:26:48;9.65;;;4.30;;
48040;SDS011;33815;48.386;11.738;2023-10-09T04:29:20;7.82;;;5.07;;
48040;SDS011;33815;48.386;11.738;2023-10-09T04:31:55;8.80;;;4.47;;
48040;SDS011;33815;48.386;11.738;2023-10-09T04:34:24;10.02;;;4.60;;
48040;SDS011;33815;48.386;11.738;2023-10-09T04:36:54;11.85;;;5.20;;
48040;SDS011;33815;48.386;11.738;2023-10-09T04:39:29;11.40;;;5.25;;
48040;SDS011;33815;48.386;11.738;2023-10-09T04:41:57;10.25;;;5.53;;
48040;SDS011;33815;48.386;11.738;2023-10-09T04:44:42;11.50;;;4.88;;
48040;SDS011;33815;48.386;11.738;2023-10-09T04:47:27;14.18;;;5.10;;
48040;SDS011;33815;48.386;11.738;2023-10-09T04:50:03;9.43;;;5.13;;
48040;SDS011;33815;48.386;11.738;2023-10-09T04:52:40;8.77;;;4.65;;
48040;SDS011;33815;48.386;11.738;2023-10-09T04:55:06;14.18;;;4.70;;
48040;SDS011;33815;48.386;11.738;2023-10-09T04:57:35;16.00;;;5.90;;
48040;SDS011;33815;48.386;11.738;2023-10-09T05:00:19;11.13;;;5.22;;
48040;SDS011;33815;48.386;11.738;2023-10-09T05:02:51;12.02;;;4.90;;
48040;SDS011;33815;48.386;11.738;2023-10-09T05:05:35;10.63;;;5.82;;
48040;SDS011;33815;48.386;11.738;2023-10-09T05:08:06;14.07;;;5.65;;
48040;SDS011;33815;48.386;11.738;2023-10-09T05:16:14;8.13;;;4.22;;
48040;SDS011;33815;48.386;11.738;2023-10-09T05:18:43;6.65;;;4.68;;
48040;SDS011;33815;48.386;11.738;2023-10-09T05:21:36;9.95;;;4.43;;
48040;SDS011;33815;48.386;11.738;2023-10-09T05:24:07;8.20;;;5.03;;
48040;SDS011;33815;48.386;11.738;2023-10-09T05:26:38;15.40;;;4.85;;
48040;SDS011;33815;48.386;11.738;2023-10-09T05:29:13;17.50;;;5.82;;
48040;SDS011;33815;48.386;11.738;2023-10-09T05:31:57;9.40;;;5.30;;
48040;SDS011;33815;48.386;11.738;2023-10-09T05:34:40;16.55;;;6.35;;
48040;SDS011;33815;48.386;11.738;2023-10-09T05:37:24;10.45;;;5.97;;
48040;SDS011;33815;48.386;11.738;2023-10-09T05:40:07;13.80;;;5.03;;
48040;SDS011;33815;48.386;11.738;2023-10-09T05:42:42;15.20;;;4.75;;
48040;SDS011;33815;48.386;11.738;2023-10-09T05:45:08;10.82;;;4.78;;
48040;SDS011;33815;48.386;11.738;2023-10-09T05:47:54;22.90;;;6.53;;
48040;SDS011;33815;48.386;11.738;2023-10-09T05:50:28;10.60;;;5.00;;
48040;SDS011;33815;48.386;11.738;2023-10-09T05:52:57;8.00;;;4.68;;
48040;SDS011;33815;48.386;11.738;2023-10-09T05:55:34;7.97;;;4.35;;
48040;SDS011;33815;48.386;11.738;2023-10-09T05:58:18;14.77;;;5.40;;
48040;SDS011;33815;48.386;11.738;2023-10-09T06:01:02;18.45;;;5.13;;
48040;SDS011;33815;48.386;11.738;2023-10-09T06:03:30;12.40;;;4.70;;
48040;SDS011;33815;48.386;11.738;2023-10-09T06:06:11;17.75;;;5.18;;
48040;SDS011;33815;48.386;11.738;2023-10-09T06:08:56;12.05;;;5.80;;
48040;SDS011;33815;48.386;11.738;2023-10-09T06:11:43;9.25;;;5.63;;
48040;SDS011;33815;48.386;11.738;2023-10-09T06:14:19;12.48;;;5.10;;
48040;SDS011;33815;48.386;11.738;2023-10-09T06:16:54;11.75;;;4.00;;
48040;SDS011;33815;48.386;11.738;2023-10-09T06:19:23;13.40;;;5.30;;
48040;SDS011;33815;48.386;11.738;2023-10-09T06:21:53;14.02;;;5.97;;
48040;SDS011;33815;48.386;11.738;2023-10-09T06:24:28;19.27;;;6.15;;
48040;SDS011;33815;48.386;11.738;2023-10-09T06:26:58;18.30;;;5.93;;
48040;SDS011;33815;48.386;11.738;2023-10-09T06:29:27;15.32;;;6.43;;
48040;SDS011;33815;48.386;11.738;2023-10-09T06:32:09;15.27;;;5.65;;
48040;SDS011;33815;48.386;11.738;2023-10-09T06:34:47;21.17;;;7.13;;
48040;SDS011;33815;48.386;11.738;2023-10-09T06:37:17;19.70;;;5.97;;
48040;SDS011;33815;48.386;11.738;2023-10-09T06:39:52;15.65;;;6.80;;
48040;SDS011;33815;48.386;11.738;2023-10-09T06:42:23;16.42;;;6.03;;
48040;SDS011;33815;48.386;11.738;2023-10-09T06:45:06;13.15;;;6.22;;
48040;SDS011;33815;48.386;11.738;2023-10-09T06:47:38;14.75;;;6.47;;
48040;SDS011;33815;48.386;11.738;2023-10-09T06:50:09;17.40;;;6.65;;
48040;SDS011;33815;48.386;11.738;2023-10-09T06:52:53;20.50;;;6.35;;
48040;SDS011;33815;48.386;11.738;2023-10-09T06:55:22;23.38;;;8.23;;
48040;SDS011;33815;48.386;11.738;2023-10-09T06:58:02;15.05;;;6.68;;
48040;SDS011;33815;48.386;11.738;2023-10-09T07:00:37;18.25;;;6.65;;
48040;SDS011;33815;48.386;11.738;2023-10-09T07:03:25;13.95;;;6.32;;
48040;SDS011;33815;48.386;11.738;2023-10-09T07:06:08;22.23;;;7.38;;
48040;SDS011;33815;48.386;11.738;2023-10-09T07:11:37;16.52;;;5.65;;
48040;SDS011;33815;48.386;11.738;2023-10-09T07:16:55;17.25;;;6.22;;
48040;SDS011;33815;48.386;11.738;2023-10-09T07:19:43;17.05;;;5.93;;
48040;SDS011;33815;48.386;11.738;2023-10-09T07:22:13;15.70;;;5.10;;
48040;SDS011;33815;48.386;11.738;2023-10-09T07:24:45;19.27;;;5.65;;
48040;SDS011;33815;48.386;11.738;2023-10-09T07:30:12;13.35;;;4.85;;
48040;SDS011;33815;48.386;11.738;2023-10-09T07:33:03;17.27;;;5.40;;
48040;SDS011;33815;48.386;11.738;2023-10-09T07:35:36;20.05;;;6.68;;
48040;SDS011;33815;48.386;11.738;2023-10-09T07:38:12;19.50;;;4.38;;
48040;SDS011;33815;48.386;11.738;2023-10-09T07:43:26;15.07;;;3.90;;
48040;SDS011;33815;48.386;11.738;2023-10-09T07:46:01;17.48;;;4.40;;
48040;SDS011;33815;48.386;11.738;2023-10-09T07:48:27;11.98;;;4.93;;
48040;SDS011;33815;48.386;11.738;2023-10-09T07:51:03;12.35;;;3.45;;
48040;SDS011;33815;48.386;11.738;2023-10-09T07:53:37;13.25;;;3.88;;
48040;SDS011;33815;48.386;11.738;2023-10-09T07:56:09;16.15;;;5.22;;
48040;SDS011;33815;48.386;11.738;2023-10-09T07:58:45;14.63;;;3.85;;
48040;SDS011;33815;48.386;11.738;2023-10-09T08:01:12;18.45;;;3.83;;
48040;SDS011;33815;48.386;11.738;2023-10-09T08:03:46;17.52;;;3.53;;
48040;SDS011;33815;48.386;11.738;2023-10-09T08:06:15;16.98;;;3.97;;
48040;SDS011;33815;48.386;11.738;2023-10-09T08:08:59;15.85;;;4.05;;
48040;SDS011;33815;48.386;11.738;2023-10-09T08:11:27;16.02;;;3.67;;
48040;SDS011;33815;48.386;11.738;2023-10-09T08:14:19;15.05;;;3.88;;
48040;SDS011;33815;48.386;11.738;2023-10-09T08:16:48;15.25;;;3.30;;
48040;SDS011;33815;48.386;11.738;2023-10-09T08:19:16;13.85;;;3.92;;
48040;SDS011;33815;48.386;11.738;2023-10-09T08:21:57;15.75;;;3.92;;
48040;SDS011;33815;48.386;11.738;2023-10-09T08:24:42;18.25;;;5.03;;
48040;SDS011;33815;48.386;11.738;2023-10-09T08:27:09;13.18;;;2.72;;
48040;SDS011;33815;48.386;11.738;2023-10-09T08:29:52;16.73;;;3.13;;
48040;SDS011;33815;48.386;11.738;2023-10-09T08:32:38;14.93;;;3.85;;
48040;SDS011;33815;48.386;11.738;2023-10-09T08:35:04;21.05;;;4.20;;
48040;SDS011;33815;48.386;11.738;2023-10-09T08:37:44;16.63;;;4.43;;
48040;SDS011;33815;48.386;11.738;2023-10-09T08:40:13;12.27;;;3.83;;
48040;SDS011;33815;48.386;11.738;2023-10-09T08:42:43;15.07;;;3.08;;
48040;SDS011;33815;48.386;11.738;2023-10-09T08:45:14;12.43;;;3.20;;
48040;SDS011;33815;48.386;11.738;2023-10-09T08:47:51;17.67;;;3.90;;
48040;SDS011;33815;48.386;11.738;2023-10-09T08:50:19;19.40;;;3.83;;
48040;SDS011;33815;48.386;11.738;2023-10-09T08:52:46;18.95;;;3.25;;
48040;SDS011;33815;48.386;11.738;2023-10-09T08:55:11;14.43;;;3.72;;
48040;SDS011;33815;48.386;11.738;2023-10-09T08:57:38;14.60;;;3.22;;
48040;SDS011;33815;48.386;11.738;2023-10-09T09:00:05;11.68;;;3.70;;
48040;SDS011;33815;48.386;11.738;2023-10-09T09:02:34;15.77;;;3.25;;
48040;SDS011;33815;48.386;11.738;2023-10-09T09:05:03;20.50;;;3.88;;
48040;SDS011;33815;48.386;11.738;2023-10-09T09:07:41;12.63;;;3.15;;
48040;SDS011;33815;48.386;11.738;2023-10-09T09:10:07;15.30;;;3.58;;
48040;SDS011;33815;48.386;11.738;2023-10-09T09:12:43;15.50;;;4.85;;
48040;SDS011;33815;48.386;11.738;2023-10-09T09:15:14;13.38;;;5.78;;
48040;SDS011;33815;48.386;11.738;2023-10-09T09:17:46;12.45;;;3.85;;
48040;SDS011;33815;48.386;11.738;2023-10-09T09:20:24;12.43;;;3.10;;
48040;SDS011;33815;48.386;11.738;2023-10-09T09:23:05;22.50;;;3.67;;
48040;SDS011;33815;48.386;11.738;2023-10-09T09:28:09;16.33;;;3.72;;
48040;SDS011;33815;48.386;11.738;2023-10-09T09:30:38;9.82;;;3.50;;
48040;SDS011;33815;48.386;11.738;2023-10-09T09:33:21;10.65;;;3.63;;
48040;SDS011;33815;48.386;11.738;2023-10-09T09:36:05;12.50;;;3.70;;
48040;SDS011;33815;48.386;11.738;2023-10-09T09:38:31;20.17;;;3.30;;
48040;SDS011;33815;48.386;11.738;2023-10-09T09:41:07;15.93;;;3.83;;
48040;SDS011;33815;48.386;11.738;2023-10-09T09:43:33;19.23;;;4.47;;
48040;SDS011;33815;48.386;11.738;2023-10-09T09:46:00;16.35;;;3.63;;
48040;SDS011;33815;48.386;11.738;2023-10-09T09:48:29;14.85;;;3.80;;
48040;SDS011;33815;48.386;11.738;2023-10-09T09:50:57;17.88;;;3.80;;
48040;SDS011;33815;48.386;11.738;2023-10-09T09:53:22;16.08;;;4.93;;
48040;SDS011;33815;48.386;11.738;2023-10-09T09:55:52;20.50;;;5.00;;
48040;SDS011;33815;48.386;11.738;2023-10-09T09:58:22;20.52;;;4.78;;
48040;SDS011;33815;48.386;11.738;2023-10-09T10:00:53;19.55;;;4.15;;
48040;SDS011;33815;48.386;11.738;2023-10-09T10:03:24;14.95;;;3.03;;
48040;SDS011;33815;48.386;11.738;2023-10-09T10:05:54;19.10;;;4.00;;
48040;SDS011;33815;48.386;11.738;2023-10-09T10:08:22;16.30;;;4.60;;
48040;SDS011;33815;48.386;11.738;2023-10-09T10:10:56;18.65;;;4.00;;
48040;SDS011;33815;48.386;11.738;2023-10-09T10:16:05;14.90;;;4.15;;
48040;SDS011;33815;48.386;11.738;2023-10-09T10:18:53;21.15;;;4.10;;
48040;SDS011;33815;48.386;11.738;2023-10-09T10:21:32;20.90;;;3.20;;
48040;SDS011;33815;48.386;11.738;2023-10-09T10:24:03;10.82;;;2.58;;
48040;SDS011;33815;48.386;11.738;2023-10-09T10:26:32;13.40;;;4.22;;
48040;SDS011;33815;48.386;11.738;2023-10-09T10:31:55;16.75;;;3.75;;
48040;SDS011;33815;48.386;11.738;2023-10-09T10:34:23;15.32;;;3.78;;
48040;SDS011;33815;48.386;11.738;2023-10-09T10:36:49;21.45;;;3.35;;
48040;SDS011;33815;48.386;11.738;2023-10-09T10:39:23;14.05;;;4.40;;
48040;SDS011;33815;48.386;11.738;2023-10-09T10:42:07;19.02;;;3.50;;
48040;SDS011;33815;48.386;11.738;2023-10-09T10:44:52;20.60;;;4.60;;
48040;SDS011;33815;48.386;11.738;2023-10-09T10:47:18;13.38;;;2.90;;
48040;SDS011;33815;48.386;11.738;2023-10-09T10:49:57;14.38;;;3.90;;
48040;SDS011;33815;48.386;11.738;2023-10-09T10:52:24;16.23;;;4.20;;
48040;SDS011;33815;48.386;11.738;2023-10-09T10:55:12;18.92;;;4.80;;
48040;SDS011;33815;48.386;11.738;2023-10-09T10:57:57;19.15;;;3.67;;
48040;SDS011;33815;48.386;11.738;2023-10-09T11:00:26;12.35;;;3.53;;
48040;SDS011;33815;48.386;11.738;2023-10-09T11:03:16;16.08;;;3.53;;
48040;SDS011;33815;48.386;11.738;2023-10-09T11:06:00;20.85;;;4.40;;
48040;SDS011;33815;48.386;11.738;2023-10-09T11:08:43;22.85;;;3.75;;
48040;SDS011;33815;48.386;11.738;2023-10-09T11:11:19;15.10;;;3.00;;
48040;SDS011;33815;48.386;11.738;2023-10-09T11:13:44;22.50;;;4.28;;
48040;SDS011;33815;48.386;11.738;2023-10-09T11:16:19;14.63;;;3.88;;
48040;SDS011;33815;48.386;11.738;2023-10-09T11:19:06;18.15;;;4.13;;
48040;SDS011;33815;48.386;11.738;2023-10-09T11:21:52;14.20;;;3.92;;
48040;SDS011;33815;48.386;11.738;2023-10-09T11:24:44;23.83;;;3.95;;
48040;SDS011;33815;48.386;11.738;2023-10-09T11:27:12;20.05;;;3.95;;
48040;SDS011;33815;48.386;11.738;2023-10-09T11:29:49;19.88;;;4.25;;
48040;SDS011;33815;48.386;11.738;2023-10-09T11:32:16;19.33;;;5.03;;
48040;SDS011;33815;48.386;11.738;2023-10-09T11:34:48;17.77;;;3.65;;
48040;SDS011;33815;48.386;11.738;2023-10-09T11:37:17;22.80;;;4.50;;
48040;SDS011;33815;48.386;11.738;2023-10-09T11:40:03;18.88;;;4.97;;
48040;SDS011;33815;48.386;11.738;2023-10-09T11:42:48;16.42;;;3.30;;
48040;SDS011;33815;48.386;11.738;2023-10-09T11:45:21;18.60;;;3.55;;
48040;SDS011;33815;48.386;11.738;2023-10-09T11:47:49;18.73;;;4.57;;
48040;SDS011;33815;48.386;11.738;2023-10-09T11:53:16;19.45;;;5.05;;
48040;SDS011;33815;48.386;11.738;2023-10-09T11:55:44;20.10;;;4.00;;
48040;SDS011;33815;48.386;11.738;2023-10-09T11:58:14;15.30;;;3.75;;
48040;SDS011;33815;48.386;11.738;2023-10-09T12:00:49;19.58;;;4.15;;
48040;SDS011;33815;48.386;11.738;2023-10-09T12:03:16;19.13;;;3.85;;
48040;SDS011;33815;48.386;11.738;2023-10-09T12:05:46;21.38;;;4.53;;
48040;SDS011;33815;48.386;11.738;2023-10-09T12:08:12;16.95;;;4.07;;
48040;SDS011;33815;48.386;11.738;2023-10-09T12:10:40;23.38;;;5.30;;
48040;SDS011;33815;48.386;11.738;2023-10-09T12:13:06;21.00;;;4.10;;
48040;SDS011;33815;48.386;11.738;2023-10-09T12:15:32;23.75;;;3.72;;
48040;SDS011;33815;48.386;11.738;2023-10-09T12:18:04;25.63;;;4.72;;
48040;SDS011;33815;48.386;11.738;2023-10-09T12:20:39;18.67;;;4.00;;
48040;SDS011;33815;48.386;11.738;2023-10-09T12:23:05;18.40;;;4.10;;
48040;SDS011;33815;48.386;11.738;2023-10-09T12:25:31;13.52;;;3.72;;
48040;SDS011;33815;48.386;11.738;2023-10-09T12:27:58;13.15;;;4.00;;
48040;SDS011;33815;48.386;11.738;2023-10-09T12:30:26;21.60;;;4.00;;
48040;SDS011;33815;48.386;11.738;2023-10-09T12:32:52;16.75;;;4.22;;
48040;SDS011;33815;48.386;11.738;2023-10-09T12:35:18;26.13;;;5.00;;
48040;SDS011;33815;48.386;11.738;2023-10-09T12:37:44;26.73;;;4.33;;
48040;SDS011;33815;48.386;11.738;2023-10-09T12:40:09;13.30;;;3.33;;
48040;SDS011;33815;48.386;11.738;2023-10-09T12:42:35;18.55;;;4.22;;
48040;SDS011;33815;48.386;11.738;2023-10-09T12:45:01;15.10;;;3.75;;
48040;SDS011;33815;48.386;11.738;2023-10-09T12:47:33;17.17;;;4.07;;
48040;SDS011;33815;48.386;11.738;2023-10-09T12:49:58;26.10;;;4.80;;
48040;SDS011;33815;48.386;11.738;2023-10-09T12:52:24;14.48;;;3.60;;
48040;SDS011;33815;48.386;11.738;2023-10-09T12:54:54;17.38;;;3.95;;
48040;SDS011;33815;48.386;11.738;2023-10-09T12:57:20;19.05;;;4.40;;
48040;SDS011;33815;48.386;11.738;2023-10-09T12:59:45;27.17;;;4.57;;
48040;SDS011;33815;48.386;11.738;2023-10-09T13:02:16;21.95;;;3.85;;
48040;SDS011;33815;48.386;11.738;2023-10-09T13:04:53;23.55;;;4.88;;
48040;SDS011;33815;48.386;11.738;2023-10-09T13:07:22;15.32;;;3.75;;
48040;SDS011;33815;48.386;11.738;2023-10-09T13:09:47;24.92;;;4.88;;
48040;SDS011;33815;48.386;11.738;2023-10-09T13:12:33;27.25;;;5.55;;
48040;SDS011;33815;48.386;11.738;2023-10-09T13:15:03;20.27;;;4.07;;
48040;SDS011;33815;48.386;11.738;2023-10-09T13:17:34;19.73;;;4.88;;
48040;SDS011;33815;48.386;11.738;2023-10-09T13:20:01;27.40;;;4.07;;
48040;SDS011;33815;48.386;11.738;2023-10-09T13:22:26;17.50;;;3.87;;
48040;SDS011;33815;48.386;11.738;2023-10-09T13:24:52;19.42;;;4.35;;
48040;SDS011;33815;48.386;11.738;2023-10-09T13:27:28;15.93;;;3.92;;
48040;SDS011;33815;48.386;11.738;2023-10-09T13:29:59;17.40;;;4.32;;
48040;SDS011;33815;48.386;11.738;2023-10-09T13:32:30;19.50;;;4.72;;
48040;SDS011;33815;48.386;11.738;2023-10-09T13:34:58;14.82;;;5.07;;
48040;SDS011;33815;48.386;11.738;2023-10-09T13:37:27;31.15;;;6.50;;
48040;SDS011;33815;48.386;11.738;2023-10-09T13:39:52;16.75;;;4.05;;
48040;SDS011;33815;48.386;11.738;2023-10-09T13:42:18;16.98;;;5.82;;
48040;SDS011;33815;48.386;11.738;2023-10-09T13:44:43;24.85;;;3.90;;
48040;SDS011;33815;48.386;11.738;2023-10-09T13:47:08;16.88;;;4.63;;
48040;SDS011;33815;48.386;11.738;2023-10-09T13:49:44;17.05;;;5.00;;
48040;SDS011;33815;48.386;11.738;2023-10-09T13:52:09;22.88;;;4.80;;
48040;SDS011;33815;48.386;11.738;2023-10-09T13:54:35;21.07;;;4.17;;
48040;SDS011;33815;48.386;11.738;2023-10-09T13:57:00;22.80;;;4.97;;
48040;SDS011;33815;48.386;11.738;2023-10-09T13:59:29;18.90;;;4.07;;
48040;SDS011;33815;48.386;11.738;2023-10-09T14:01:55;28.73;;;5.22;;
48040;SDS011;33815;48.386;11.738;2023-10-09T14:04:21;18.63;;;4.20;;
48040;SDS011;33815;48.386;11.738;2023-10-09T14:06:48;16.85;;;6.15;;
48040;SDS011;33815;48.386;11.738;2023-10-09T14:09:14;19.45;;;3.88;;
48040;SDS011;33815;48.386;11.738;2023-10-09T14:11:56;22.85;;;4.03;;
48040;SDS011;33815;48.386;11.738;2023-10-09T14:14:33;19.67;;;3.60;;
48040;SDS011;33815;48.386;11.738;2023-10-09T14:17:12;19.13;;;4.07;;
48040;SDS011;33815;48.386;11.738;2023-10-09T14:19:39;23.70;;;5.30;;
48040;SDS011;33815;48.386;11.738;2023-10-09T14:22:06;21.23;;;3.92;;
48040;SDS011;33815;48.386;11.738;2023-10-09T14:24:32;17.58;;;4.70;;
48040;SDS011;33815;48.386;11.738;2023-10-09T14:26:59;14.02;;;4.30;;
48040;SDS011;33815;48.386;11.738;2023-10-09T14:29:28;18.30;;;4.53;;
48040;SDS011;33815;48.386;11.738;2023-10-09T14:31:53;15.05;;;3.67;;
48040;SDS011;33815;48.386;11.738;2023-10-09T14:34:25;24.48;;;5.43;;
48040;SDS011;33815;48.386;11.738;2023-10-09T14:36:58;25.10;;;4.28;;
48040;SDS011;33815;48.386;11.738;2023-10-09T14:39:25;12.00;;;3.05;;
48040;SDS011;33815;48.386;11.738;2023-10-09T14:41:51;18.20;;;4.18;;
48040;SDS011;33815;48.386;11.738;2023-10-09T14:44:17;14.43;;;4.50;;
48040;SDS011;33815;48.386;11.738;2023-10-09T14:46:42;18.80;;;4.77;;
48040;SDS011;33815;48.386;11.738;2023-10-09T14:49:08;18.55;;;5.63;;
48040;SDS011;33815;48.386;11.738;2023-10-09T14:51:38;20.58;;;4.70;;
48040;SDS011;33815;48.386;11.738;2023-10-09T14:54:04;8.18;;;3.22;;
48040;SDS011;33815;48.386;11.738;2023-10-09T14:56:32;20.65;;;3.92;;
48040;SDS011;33815;48.386;11.738;2023-10-09T14:59:01;16.25;;;5.70;;
48040;SDS011;33815;48.386;11.738;2023-10-09T15:01:27;17.35;;;3.92;;
48040;SDS011;33815;48.386;11.738;2023-10-09T15:03:57;21.10;;;4.47;;
48040;SDS011;33815;48.386;11.738;2023-10-09T15:06:25;16.45;;;4.80;;
48040;SDS011;33815;48.386;11.738;2023-10-09T15:08:55;18.67;;;4.75;;
48040;SDS011;33815;48.386;11.738;2023-10-09T15:11:24;25.08;;;4.90;;
48040;SDS011;33815;48.386;11.738;2023-10-09T15:13:51;23.23;;;5.60;;
48040;SDS011;33815;48.386;11.738;2023-10-09T15:16:17;16.27;;;3.75;;
48040;SDS011;33815;48.386;11.738;2023-10-09T15:18:43;22.17;;;4.43;;
48040;SDS011;33815;48.386;11.738;2023-10-09T15:21:08;19.35;;;4.57;;